sensor_id;sensor_type;location;lat;lon;timestamp;P1;durP1;ratioP1;P2;durP2;ratioP2
14394;SDS011;7282;49.204;10.652;2023-05-07T00:00:06;3.90;;;3.50;;
14394;SDS011;7282;49.204;10.652;2023-05-07T00:02:35;4.77;;;3.57;;
14394;SDS011;7282;49.204;10.652;2023-05-07T00:05:03;3.40;;;3.10;;
14394;SDS011;7282;49.204;10.652;2023-05-07T00:07:30;4.20;;;3.50;;
14394;SDS011;7282;49.204;10.652;2023-05-07T00:09:57;3.70;;;3.40;;
14394;SDS011;7282;49.204;10.652;2023-05-07T00:12:23;4.13;;;3.73;;
14394;SDS011;7282;49.204;10.652;2023-05-07T00:14:50;5.17;;;3.90;;
14394;SDS011;7282;49.204;10.652;2023-05-07T00:17:17;4.30;;;3.90;;
14394;SDS011;7282;49.204;10.652;2023-05-07T00:19:43;4.00;;;3.70;;
14394;SDS011;7282;49.204;10.652;2023-05-07T00:22:10;4.40;;;4.00;;
14394;SDS011;7282;49.204;10.652;2023-05-07T00:24:37;4.63;;;4.23;;
14394;SDS011;7282;49.204;10.652;2023-05-07T00:27:04;4.47;;;4.00;;
14394;SDS011;7282;49.204;10.652;2023-05-07T00:29:31;4.07;;;3.77;;
14394;SDS011;7282;49.204;10.652;2023-05-07T00:31:57;4.77;;;4.37;;
14394;SDS011;7282;49.204;10.652;2023-05-07T00:34:24;4.20;;;3.70;;
14394;SDS011;7282;49.204;10.652;2023-05-07T00:36:51;3.40;;;3.20;;
14394;SDS011;7282;49.204;10.652;2023-05-07T00:39:17;3.87;;;3.57;;
14394;SDS011;7282;49.204;10.652;2023-05-07T00:41:44;5.63;;;3.67;;
14394;SDS011;7282;49.204;10.652;2023-05-07T00:44:11;3.80;;;3.50;;
14394;SDS011;7282;49.204;10.652;2023-05-07T00:46:38;4.10;;;3.70;;
14394;SDS011;7282;49.204;10.652;2023-05-07T00:49:05;3.73;;;3.43;;
14394;SDS011;7282;49.204;10.652;2023-05-07T00:51:32;4.40;;;4.00;;
14394;SDS011;7282;49.204;10.652;2023-05-07T00:54:00;4.70;;;4.27;;
14394;SDS011;7282;49.204;10.652;2023-05-07T00:56:27;5.47;;;5.00;;
14394;SDS011;7282;49.204;10.652;2023-05-07T00:58:54;4.70;;;4.30;;
14394;SDS011;7282;49.204;10.652;2023-05-07T01:01:21;4.90;;;4.40;;
14394;SDS011;7282;49.204;10.652;2023-05-07T01:03:48;4.40;;;4.00;;
14394;SDS011;7282;49.204;10.652;2023-05-07T01:06:15;4.93;;;4.33;;
14394;SDS011;7282;49.204;10.652;2023-05-07T01:08:42;4.63;;;4.10;;
14394;SDS011;7282;49.204;10.652;2023-05-07T01:11:09;5.47;;;4.97;;
14394;SDS011;7282;49.204;10.652;2023-05-07T01:13:37;4.60;;;4.20;;
14394;SDS011;7282;49.204;10.652;2023-05-07T01:16:05;5.27;;;4.77;;
14394;SDS011;7282;49.204;10.652;2023-05-07T01:18:31;4.70;;;4.40;;
14394;SDS011;7282;49.204;10.652;2023-05-07T01:20:58;6.13;;;4.80;;
14394;SDS011;7282;49.204;10.652;2023-05-07T01:23:26;5.70;;;5.20;;
14394;SDS011;7282;49.204;10.652;2023-05-07T01:25:54;5.17;;;4.77;;
14394;SDS011;7282;49.204;10.652;2023-05-07T01:28:21;5.60;;;5.00;;
14394;SDS011;7282;49.204;10.652;2023-05-07T01:30:49;5.47;;;5.07;;
14394;SDS011;7282;49.204;10.652;2023-05-07T01:33:18;6.00;;;5.37;;
14394;SDS011;7282;49.204;10.652;2023-05-07T01:35:45;5.87;;;5.27;;
14394;SDS011;7282;49.204;10.652;2023-05-07T01:38:13;5.57;;;5.07;;
14394;SDS011;7282;49.204;10.652;2023-05-07T01:40:41;5.47;;;5.03;;
14394;SDS011;7282;49.204;10.652;2023-05-07T01:43:07;7.97;;;5.87;;
14394;SDS011;7282;49.204;10.652;2023-05-07T01:45:34;5.67;;;5.17;;
14394;SDS011;7282;49.204;10.652;2023-05-07T01:48:02;5.50;;;5.00;;
14394;SDS011;7282;49.204;10.652;2023-05-07T01:50:29;6.20;;;5.60;;
14394;SDS011;7282;49.204;10.652;2023-05-07T01:52:57;5.03;;;4.63;;
14394;SDS011;7282;49.204;10.652;2023-05-07T01:55:24;5.63;;;5.13;;
14394;SDS011;7282;49.204;10.652;2023-05-07T01:57:50;4.93;;;4.47;;
14394;SDS011;7282;49.204;10.652;2023-05-07T02:00:17;5.70;;;5.07;;
14394;SDS011;7282;49.204;10.652;2023-05-07T02:02:45;5.30;;;4.90;;
14394;SDS011;7282;49.204;10.652;2023-05-07T02:05:11;5.57;;;5.07;;
14394;SDS011;7282;49.204;10.652;2023-05-07T02:07:41;5.70;;;5.17;;
14394;SDS011;7282;49.204;10.652;2023-05-07T02:10:08;5.77;;;5.27;;
14394;SDS011;7282;49.204;10.652;2023-05-07T02:12:35;6.00;;;5.40;;
14394;SDS011;7282;49.204;10.652;2023-05-07T02:15:01;6.00;;;5.50;;
14394;SDS011;7282;49.204;10.652;2023-05-07T02:17:28;7.23;;;6.53;;
14394;SDS011;7282;49.204;10.652;2023-05-07T02:19:57;6.40;;;5.80;;
14394;SDS011;7282;49.204;10.652;2023-05-07T02:22:23;5.63;;;5.13;;
14394;SDS011;7282;49.204;10.652;2023-05-07T02:24:51;6.33;;;5.70;;
14394;SDS011;7282;49.204;10.652;2023-05-07T02:27:17;6.80;;;6.20;;
14394;SDS011;7282;49.204;10.652;2023-05-07T02:29:44;5.90;;;5.40;;
14394;SDS011;7282;49.204;10.652;2023-05-07T02:32:11;5.93;;;5.37;;
14394;SDS011;7282;49.204;10.652;2023-05-07T02:34:38;5.90;;;5.40;;
14394;SDS011;7282;49.204;10.652;2023-05-07T02:37:04;6.67;;;6.07;;
14394;SDS011;7282;49.204;10.652;2023-05-07T02:39:31;6.20;;;5.60;;
14394;SDS011;7282;49.204;10.652;2023-05-07T02:41:58;5.57;;;5.17;;
14394;SDS011;7282;49.204;10.652;2023-05-07T02:44:24;6.17;;;5.57;;
14394;SDS011;7282;49.204;10.652;2023-05-07T02:46:51;6.70;;;6.20;;
14394;SDS011;7282;49.204;10.652;2023-05-07T02:49:18;6.20;;;5.70;;
14394;SDS011;7282;49.204;10.652;2023-05-07T02:51:45;6.27;;;5.67;;
14394;SDS011;7282;49.204;10.652;2023-05-07T02:54:11;6.07;;;5.57;;
14394;SDS011;7282;49.204;10.652;2023-05-07T02:56:38;6.60;;;5.90;;
14394;SDS011;7282;49.204;10.652;2023-05-07T02:59:05;6.60;;;6.00;;
14394;SDS011;7282;49.204;10.652;2023-05-07T03:01:31;6.57;;;5.97;;
14394;SDS011;7282;49.204;10.652;2023-05-07T03:03:58;5.90;;;5.40;;
14394;SDS011;7282;49.204;10.652;2023-05-07T03:06:25;6.03;;;5.50;;
14394;SDS011;7282;49.204;10.652;2023-05-07T03:08:52;6.07;;;5.57;;
14394;SDS011;7282;49.204;10.652;2023-05-07T03:11:18;5.60;;;5.20;;
14394;SDS011;7282;49.204;10.652;2023-05-07T03:13:45;5.70;;;5.20;;
14394;SDS011;7282;49.204;10.652;2023-05-07T03:16:12;6.10;;;5.60;;
14394;SDS011;7282;49.204;10.652;2023-05-07T03:18:39;6.10;;;5.60;;
14394;SDS011;7282;49.204;10.652;2023-05-07T03:21:06;5.80;;;5.30;;
14394;SDS011;7282;49.204;10.652;2023-05-07T03:23:32;5.93;;;5.43;;
14394;SDS011;7282;49.204;10.652;2023-05-07T03:25:59;5.77;;;5.27;;
14394;SDS011;7282;49.204;10.652;2023-05-07T03:28:26;6.03;;;5.53;;
14394;SDS011;7282;49.204;10.652;2023-05-07T03:30:52;5.50;;;5.00;;
14394;SDS011;7282;49.204;10.652;2023-05-07T03:33:19;5.90;;;5.30;;
14394;SDS011;7282;49.204;10.652;2023-05-07T03:35:46;5.77;;;5.27;;
14394;SDS011;7282;49.204;10.652;2023-05-07T03:38:12;5.87;;;5.37;;
14394;SDS011;7282;49.204;10.652;2023-05-07T03:40:39;6.00;;;5.50;;
14394;SDS011;7282;49.204;10.652;2023-05-07T03:43:06;6.10;;;5.50;;
14394;SDS011;7282;49.204;10.652;2023-05-07T03:45:33;6.30;;;5.80;;
14394;SDS011;7282;49.204;10.652;2023-05-07T03:47:59;5.50;;;5.10;;
14394;SDS011;7282;49.204;10.652;2023-05-07T03:50:26;6.80;;;6.20;;
14394;SDS011;7282;49.204;10.652;2023-05-07T03:52:53;6.47;;;5.53;;
14394;SDS011;7282;49.204;10.652;2023-05-07T03:55:19;7.77;;;7.17;;
14394;SDS011;7282;49.204;10.652;2023-05-07T03:57:46;10.03;;;6.33;;
14394;SDS011;7282;49.204;10.652;2023-05-07T04:00:13;7.57;;;6.73;;
14394;SDS011;7282;49.204;10.652;2023-05-07T04:02:40;7.63;;;6.43;;
14394;SDS011;7282;49.204;10.652;2023-05-07T04:05:07;5.93;;;5.43;;
14394;SDS011;7282;49.204;10.652;2023-05-07T04:07:34;6.13;;;5.63;;
14394;SDS011;7282;49.204;10.652;2023-05-07T04:10:01;6.57;;;5.97;;
14394;SDS011;7282;49.204;10.652;2023-05-07T04:12:28;6.53;;;5.87;;
14394;SDS011;7282;49.204;10.652;2023-05-07T04:14:54;8.23;;;6.30;;
14394;SDS011;7282;49.204;10.652;2023-05-07T04:17:21;6.73;;;6.13;;
14394;SDS011;7282;49.204;10.652;2023-05-07T04:19:48;6.50;;;5.90;;
14394;SDS011;7282;49.204;10.652;2023-05-07T04:22:15;6.30;;;5.57;;
14394;SDS011;7282;49.204;10.652;2023-05-07T04:24:41;6.77;;;6.00;;
14394;SDS011;7282;49.204;10.652;2023-05-07T04:27:08;6.97;;;6.20;;
14394;SDS011;7282;49.204;10.652;2023-05-07T04:29:35;6.73;;;6.13;;
14394;SDS011;7282;49.204;10.652;2023-05-07T04:32:02;6.30;;;5.80;;
14394;SDS011;7282;49.204;10.652;2023-05-07T04:34:28;6.57;;;5.97;;
14394;SDS011;7282;49.204;10.652;2023-05-07T04:36:57;6.17;;;5.67;;
14394;SDS011;7282;49.204;10.652;2023-05-07T04:39:24;6.97;;;6.30;;
14394;SDS011;7282;49.204;10.652;2023-05-07T04:41:51;6.80;;;6.20;;
14394;SDS011;7282;49.204;10.652;2023-05-07T04:44:17;6.87;;;6.17;;
14394;SDS011;7282;49.204;10.652;2023-05-07T04:46:46;6.93;;;6.23;;
14394;SDS011;7282;49.204;10.652;2023-05-07T04:49:12;6.47;;;5.87;;
14394;SDS011;7282;49.204;10.652;2023-05-07T04:51:39;6.30;;;5.80;;
14394;SDS011;7282;49.204;10.652;2023-05-07T04:54:08;6.57;;;5.97;;
14394;SDS011;7282;49.204;10.652;2023-05-07T04:56:35;6.30;;;5.80;;
14394;SDS011;7282;49.204;10.652;2023-05-07T04:59:02;6.43;;;5.83;;
14394;SDS011;7282;49.204;10.652;2023-05-07T05:01:28;6.57;;;5.97;;
14394;SDS011;7282;49.204;10.652;2023-05-07T05:03:55;6.90;;;5.87;;
14394;SDS011;7282;49.204;10.652;2023-05-07T05:06:22;6.17;;;5.67;;
14394;SDS011;7282;49.204;10.652;2023-05-07T05:08:48;6.10;;;5.50;;
14394;SDS011;7282;49.204;10.652;2023-05-07T05:11:15;6.80;;;6.20;;
14394;SDS011;7282;49.204;10.652;2023-05-07T05:13:42;6.87;;;6.27;;
14394;SDS011;7282;49.204;10.652;2023-05-07T05:16:09;6.17;;;5.67;;
14394;SDS011;7282;49.204;10.652;2023-05-07T05:18:35;6.43;;;5.90;;
14394;SDS011;7282;49.204;10.652;2023-05-07T05:21:02;6.73;;;6.23;;
14394;SDS011;7282;49.204;10.652;2023-05-07T05:23:29;6.50;;;5.90;;
14394;SDS011;7282;49.204;10.652;2023-05-07T05:25:56;6.80;;;6.20;;
14394;SDS011;7282;49.204;10.652;2023-05-07T05:28:25;6.90;;;6.30;;
14394;SDS011;7282;49.204;10.652;2023-05-07T05:30:51;7.40;;;6.33;;
14394;SDS011;7282;49.204;10.652;2023-05-07T05:33:18;7.17;;;6.27;;
14394;SDS011;7282;49.204;10.652;2023-05-07T05:35:45;6.37;;;5.77;;
14394;SDS011;7282;49.204;10.652;2023-05-07T05:38:12;6.70;;;6.10;;
14394;SDS011;7282;49.204;10.652;2023-05-07T05:40:38;6.57;;;5.97;;
14394;SDS011;7282;49.204;10.652;2023-05-07T05:43:05;6.37;;;5.77;;
14394;SDS011;7282;49.204;10.652;2023-05-07T05:45:32;6.70;;;6.07;;
14394;SDS011;7282;49.204;10.652;2023-05-07T05:47:59;6.63;;;6.13;;
14394;SDS011;7282;49.204;10.652;2023-05-07T05:50:26;7.00;;;6.40;;
14394;SDS011;7282;49.204;10.652;2023-05-07T05:52:52;6.63;;;6.03;;
14394;SDS011;7282;49.204;10.652;2023-05-07T05:55:19;7.13;;;6.43;;
14394;SDS011;7282;49.204;10.652;2023-05-07T05:57:46;6.70;;;6.10;;
14394;SDS011;7282;49.204;10.652;2023-05-07T06:00:13;6.60;;;6.10;;
14394;SDS011;7282;49.204;10.652;2023-05-07T06:02:40;6.40;;;5.83;;
14394;SDS011;7282;49.204;10.652;2023-05-07T06:05:08;6.47;;;5.97;;
14394;SDS011;7282;49.204;10.652;2023-05-07T06:07:35;6.63;;;6.13;;
14394;SDS011;7282;49.204;10.652;2023-05-07T06:10:02;7.10;;;6.50;;
14394;SDS011;7282;49.204;10.652;2023-05-07T06:12:29;6.70;;;6.10;;
14394;SDS011;7282;49.204;10.652;2023-05-07T06:14:55;7.97;;;7.27;;
14394;SDS011;7282;49.204;10.652;2023-05-07T06:17:22;6.87;;;6.30;;
14394;SDS011;7282;49.204;10.652;2023-05-07T06:19:49;6.67;;;6.07;;
14394;SDS011;7282;49.204;10.652;2023-05-07T06:22:15;7.00;;;6.23;;
14394;SDS011;7282;49.204;10.652;2023-05-07T06:24:42;6.53;;;6.00;;
14394;SDS011;7282;49.204;10.652;2023-05-07T06:27:09;7.43;;;6.77;;
14394;SDS011;7282;49.204;10.652;2023-05-07T06:29:36;7.37;;;6.70;;
14394;SDS011;7282;49.204;10.652;2023-05-07T06:32:06;6.93;;;6.30;;
14394;SDS011;7282;49.204;10.652;2023-05-07T06:34:31;7.93;;;7.33;;
14394;SDS011;7282;49.204;10.652;2023-05-07T06:36:57;7.27;;;6.67;;
14394;SDS011;7282;49.204;10.652;2023-05-07T06:39:24;8.20;;;7.40;;
14394;SDS011;7282;49.204;10.652;2023-05-07T06:41:51;8.67;;;7.93;;
14394;SDS011;7282;49.204;10.652;2023-05-07T06:44:18;8.20;;;7.50;;
14394;SDS011;7282;49.204;10.652;2023-05-07T06:46:44;8.60;;;7.70;;
14394;SDS011;7282;49.204;10.652;2023-05-07T06:49:15;8.43;;;7.47;;
14394;SDS011;7282;49.204;10.652;2023-05-07T06:51:41;8.20;;;7.40;;
14394;SDS011;7282;49.204;10.652;2023-05-07T06:54:08;8.60;;;7.93;;
14394;SDS011;7282;49.204;10.652;2023-05-07T06:56:35;8.07;;;7.33;;
14394;SDS011;7282;49.204;10.652;2023-05-07T06:59:02;7.93;;;7.23;;
14394;SDS011;7282;49.204;10.652;2023-05-07T07:01:29;8.20;;;7.50;;
14394;SDS011;7282;49.204;10.652;2023-05-07T07:03:56;7.80;;;7.10;;
14394;SDS011;7282;49.204;10.652;2023-05-07T07:06:22;8.00;;;7.30;;
14394;SDS011;7282;49.204;10.652;2023-05-07T07:08:49;8.10;;;7.40;;
14394;SDS011;7282;49.204;10.652;2023-05-07T07:11:16;8.27;;;7.47;;
14394;SDS011;7282;49.204;10.652;2023-05-07T07:13:42;7.67;;;6.97;;
14394;SDS011;7282;49.204;10.652;2023-05-07T07:16:09;8.90;;;8.07;;
14394;SDS011;7282;49.204;10.652;2023-05-07T07:18:36;7.57;;;6.97;;
14394;SDS011;7282;49.204;10.652;2023-05-07T07:21:03;7.67;;;7.03;;
14394;SDS011;7282;49.204;10.652;2023-05-07T07:23:29;8.30;;;7.60;;
14394;SDS011;7282;49.204;10.652;2023-05-07T07:25:56;8.03;;;7.30;;
14394;SDS011;7282;49.204;10.652;2023-05-07T07:28:23;8.03;;;7.33;;
14394;SDS011;7282;49.204;10.652;2023-05-07T07:30:49;7.40;;;6.80;;
14394;SDS011;7282;49.204;10.652;2023-05-07T07:33:16;7.27;;;6.57;;
14394;SDS011;7282;49.204;10.652;2023-05-07T07:35:43;7.10;;;6.40;;
14394;SDS011;7282;49.204;10.652;2023-05-07T07:38:09;7.83;;;7.13;;
14394;SDS011;7282;49.204;10.652;2023-05-07T07:40:36;7.57;;;6.90;;
14394;SDS011;7282;49.204;10.652;2023-05-07T07:43:03;7.83;;;7.13;;
14394;SDS011;7282;49.204;10.652;2023-05-07T07:45:30;7.77;;;7.07;;
14394;SDS011;7282;49.204;10.652;2023-05-07T07:47:57;6.93;;;6.30;;
14394;SDS011;7282;49.204;10.652;2023-05-07T07:50:24;6.10;;;5.60;;
14394;SDS011;7282;49.204;10.652;2023-05-07T07:52:50;7.37;;;6.77;;
14394;SDS011;7282;49.204;10.652;2023-05-07T07:55:19;7.50;;;6.63;;
14394;SDS011;7282;49.204;10.652;2023-05-07T07:57:48;7.60;;;6.90;;
14394;SDS011;7282;49.204;10.652;2023-05-07T08:00:15;7.80;;;6.90;;
14394;SDS011;7282;49.204;10.652;2023-05-07T08:02:42;7.77;;;7.17;;
14394;SDS011;7282;49.204;10.652;2023-05-07T08:05:09;8.23;;;7.30;;
14394;SDS011;7282;49.204;10.652;2023-05-07T08:07:35;7.70;;;7.00;;
14394;SDS011;7282;49.204;10.652;2023-05-07T08:10:02;7.90;;;7.20;;
14394;SDS011;7282;49.204;10.652;2023-05-07T08:12:29;7.70;;;6.90;;
14394;SDS011;7282;49.204;10.652;2023-05-07T08:14:56;7.17;;;6.47;;
14394;SDS011;7282;49.204;10.652;2023-05-07T08:17:23;7.20;;;6.60;;
14394;SDS011;7282;49.204;10.652;2023-05-07T08:19:49;6.33;;;5.73;;
14394;SDS011;7282;49.204;10.652;2023-05-07T08:22:16;6.90;;;6.30;;
14394;SDS011;7282;49.204;10.652;2023-05-07T08:24:44;5.93;;;5.43;;
14394;SDS011;7282;49.204;10.652;2023-05-07T08:27:11;7.77;;;7.00;;
14394;SDS011;7282;49.204;10.652;2023-05-07T08:29:37;7.10;;;6.50;;
14394;SDS011;7282;49.204;10.652;2023-05-07T08:32:04;7.83;;;7.13;;
14394;SDS011;7282;49.204;10.652;2023-05-07T08:34:31;7.00;;;6.40;;
14394;SDS011;7282;49.204;10.652;2023-05-07T08:36:58;7.33;;;6.63;;
14394;SDS011;7282;49.204;10.652;2023-05-07T08:39:29;7.43;;;6.83;;
14394;SDS011;7282;49.204;10.652;2023-05-07T08:41:54;7.03;;;6.53;;
14394;SDS011;7282;49.204;10.652;2023-05-07T08:44:23;7.80;;;7.10;;
14394;SDS011;7282;49.204;10.652;2023-05-07T08:46:52;7.50;;;6.83;;
14394;SDS011;7282;49.204;10.652;2023-05-07T08:49:20;7.33;;;6.73;;
14394;SDS011;7282;49.204;10.652;2023-05-07T08:51:47;7.60;;;7.00;;
14394;SDS011;7282;49.204;10.652;2023-05-07T08:54:15;8.17;;;7.47;;
14394;SDS011;7282;49.204;10.652;2023-05-07T08:56:42;8.53;;;7.83;;
14394;SDS011;7282;49.204;10.652;2023-05-07T08:59:09;8.13;;;7.53;;
14394;SDS011;7282;49.204;10.652;2023-05-07T09:01:36;8.47;;;7.67;;
14394;SDS011;7282;49.204;10.652;2023-05-07T09:04:03;8.50;;;7.73;;
14394;SDS011;7282;49.204;10.652;2023-05-07T09:06:30;8.00;;;7.30;;
14394;SDS011;7282;49.204;10.652;2023-05-07T09:08:57;7.70;;;7.10;;
14394;SDS011;7282;49.204;10.652;2023-05-07T09:11:25;8.00;;;7.23;;
14394;SDS011;7282;49.204;10.652;2023-05-07T09:13:55;7.63;;;7.03;;
14394;SDS011;7282;49.204;10.652;2023-05-07T09:16:22;7.77;;;7.17;;
14394;SDS011;7282;49.204;10.652;2023-05-07T09:18:50;9.33;;;8.43;;
14394;SDS011;7282;49.204;10.652;2023-05-07T09:21:17;9.27;;;8.53;;
14394;SDS011;7282;49.204;10.652;2023-05-07T09:23:44;9.23;;;8.37;;
14394;SDS011;7282;49.204;10.652;2023-05-07T09:26:11;8.10;;;7.40;;
14394;SDS011;7282;49.204;10.652;2023-05-07T09:28:42;8.77;;;7.80;;
14394;SDS011;7282;49.204;10.652;2023-05-07T09:31:07;9.70;;;8.80;;
14394;SDS011;7282;49.204;10.652;2023-05-07T09:33:34;9.43;;;8.43;;
14394;SDS011;7282;49.204;10.652;2023-05-07T09:36:04;9.47;;;8.60;;
14394;SDS011;7282;49.204;10.652;2023-05-07T09:38:32;8.53;;;7.83;;
14394;SDS011;7282;49.204;10.652;2023-05-07T09:41:02;8.07;;;7.37;;
14394;SDS011;7282;49.204;10.652;2023-05-07T09:43:34;8.23;;;7.23;;
14394;SDS011;7282;49.204;10.652;2023-05-07T09:46:02;8.63;;;7.83;;
14394;SDS011;7282;49.204;10.652;2023-05-07T09:48:29;10.00;;;8.80;;
14394;SDS011;7282;49.204;10.652;2023-05-07T09:50:56;8.93;;;8.13;;
14394;SDS011;7282;49.204;10.652;2023-05-07T09:53:26;9.70;;;8.80;;
14394;SDS011;7282;49.204;10.652;2023-05-07T09:55:52;9.80;;;9.00;;
14394;SDS011;7282;49.204;10.652;2023-05-07T09:58:22;10.10;;;9.17;;
14394;SDS011;7282;49.204;10.652;2023-05-07T10:00:49;9.10;;;8.30;;
14394;SDS011;7282;49.204;10.652;2023-05-07T10:03:16;8.93;;;8.20;;
14394;SDS011;7282;49.204;10.652;2023-05-07T10:05:44;8.57;;;7.80;;
14394;SDS011;7282;49.204;10.652;2023-05-07T10:08:13;8.53;;;7.73;;
14394;SDS011;7282;49.204;10.652;2023-05-07T10:10:42;9.07;;;8.37;;
14394;SDS011;7282;49.204;10.652;2023-05-07T10:13:09;8.33;;;7.63;;
14394;SDS011;7282;49.204;10.652;2023-05-07T10:15:37;8.70;;;7.80;;
14394;SDS011;7282;49.204;10.652;2023-05-07T10:18:04;9.10;;;8.40;;
14394;SDS011;7282;49.204;10.652;2023-05-07T10:20:33;9.17;;;8.27;;
14394;SDS011;7282;49.204;10.652;2023-05-07T10:23:00;8.73;;;7.87;;
14394;SDS011;7282;49.204;10.652;2023-05-07T10:25:29;7.90;;;7.30;;
14394;SDS011;7282;49.204;10.652;2023-05-07T10:28:01;6.90;;;6.20;;
14394;SDS011;7282;49.204;10.652;2023-05-07T10:30:35;7.23;;;6.63;;
14394;SDS011;7282;49.204;10.652;2023-05-07T10:33:01;6.97;;;6.40;;
14394;SDS011;7282;49.204;10.652;2023-05-07T10:35:30;7.03;;;6.40;;
14394;SDS011;7282;49.204;10.652;2023-05-07T10:37:58;6.73;;;5.93;;
14394;SDS011;7282;49.204;10.652;2023-05-07T10:40:25;5.90;;;5.40;;
14394;SDS011;7282;49.204;10.652;2023-05-07T10:43:00;6.17;;;5.67;;
14394;SDS011;7282;49.204;10.652;2023-05-07T10:45:25;6.10;;;5.60;;
14394;SDS011;7282;49.204;10.652;2023-05-07T10:48:10;6.97;;;6.37;;
14394;SDS011;7282;49.204;10.652;2023-05-07T10:50:37;5.30;;;4.90;;
14394;SDS011;7282;49.204;10.652;2023-05-07T10:58:34;4.97;;;4.57;;
14394;SDS011;7282;49.204;10.652;2023-05-07T11:01:03;4.20;;;3.90;;
14394;SDS011;7282;49.204;10.652;2023-05-07T11:03:30;3.80;;;3.50;;
14394;SDS011;7282;49.204;10.652;2023-05-07T11:06:09;6.97;;;4.23;;
14394;SDS011;7282;49.204;10.652;2023-05-07T11:08:57;3.90;;;3.60;;
14394;SDS011;7282;49.204;10.652;2023-05-07T11:11:46;3.97;;;3.57;;
14394;SDS011;7282;49.204;10.652;2023-05-07T11:13:53;3.90;;;3.60;;
14394;SDS011;7282;49.204;10.652;2023-05-07T11:16:23;4.13;;;3.80;;
14394;SDS011;7282;49.204;10.652;2023-05-07T11:18:50;3.80;;;3.40;;
14394;SDS011;7282;49.204;10.652;2023-05-07T11:24:03;3.50;;;3.20;;
14394;SDS011;7282;49.204;10.652;2023-05-07T11:26:30;3.30;;;2.97;;
14394;SDS011;7282;49.204;10.652;2023-05-07T11:28:57;3.73;;;3.07;;
14394;SDS011;7282;49.204;10.652;2023-05-07T11:31:27;3.30;;;3.00;;
14394;SDS011;7282;49.204;10.652;2023-05-07T11:33:54;3.20;;;3.00;;
14394;SDS011;7282;49.204;10.652;2023-05-07T11:36:22;2.83;;;2.63;;
14394;SDS011;7282;49.204;10.652;2023-05-07T11:38:49;3.43;;;3.13;;
14394;SDS011;7282;49.204;10.652;2023-05-07T11:41:16;3.30;;;3.00;;
14394;SDS011;7282;49.204;10.652;2023-05-07T11:44:00;3.20;;;2.90;;
14394;SDS011;7282;49.204;10.652;2023-05-07T11:46:24;3.63;;;3.03;;
14394;SDS011;7282;49.204;10.652;2023-05-07T11:48:51;2.80;;;2.60;;
14394;SDS011;7282;49.204;10.652;2023-05-07T11:51:21;3.07;;;2.87;;
14394;SDS011;7282;49.204;10.652;2023-05-07T11:53:49;2.80;;;2.60;;
14394;SDS011;7282;49.204;10.652;2023-05-07T11:56:16;3.17;;;2.87;;
14394;SDS011;7282;49.204;10.652;2023-05-07T11:58:43;3.50;;;2.50;;
14394;SDS011;7282;49.204;10.652;2023-05-07T12:01:11;2.80;;;2.60;;
14394;SDS011;7282;49.204;10.652;2023-05-07T12:03:41;2.87;;;2.60;;
14394;SDS011;7282;49.204;10.652;2023-05-07T12:06:08;2.50;;;2.30;;
14394;SDS011;7282;49.204;10.652;2023-05-07T12:08:36;2.43;;;2.10;;
14394;SDS011;7282;49.204;10.652;2023-05-07T12:11:03;3.10;;;2.40;;
14394;SDS011;7282;49.204;10.652;2023-05-07T12:13:32;3.73;;;2.10;;
14394;SDS011;7282;49.204;10.652;2023-05-07T12:15:58;4.57;;;2.53;;
14394;SDS011;7282;49.204;10.652;2023-05-07T12:18:25;3.10;;;2.57;;
14394;SDS011;7282;49.204;10.652;2023-05-07T12:20:53;3.20;;;2.80;;
14394;SDS011;7282;49.204;10.652;2023-05-07T12:23:19;2.43;;;2.20;;
14394;SDS011;7282;49.204;10.652;2023-05-07T12:25:46;2.50;;;2.30;;
14394;SDS011;7282;49.204;10.652;2023-05-07T12:28:13;2.90;;;2.43;;
14394;SDS011;7282;49.204;10.652;2023-05-07T12:30:46;2.33;;;2.13;;
14394;SDS011;7282;49.204;10.652;2023-05-07T12:33:16;2.60;;;2.40;;
14394;SDS011;7282;49.204;10.652;2023-05-07T12:35:43;2.40;;;2.20;;
14394;SDS011;7282;49.204;10.652;2023-05-07T12:38:11;2.50;;;2.30;;
14394;SDS011;7282;49.204;10.652;2023-05-07T12:40:43;2.40;;;2.20;;
14394;SDS011;7282;49.204;10.652;2023-05-07T12:43:07;2.83;;;2.40;;
14394;SDS011;7282;49.204;10.652;2023-05-07T12:45:37;2.20;;;2.00;;
14394;SDS011;7282;49.204;10.652;2023-05-07T12:48:07;2.50;;;2.30;;
14394;SDS011;7282;49.204;10.652;2023-05-07T12:50:36;2.30;;;2.10;;
14394;SDS011;7282;49.204;10.652;2023-05-07T12:53:03;2.00;;;1.80;;
14394;SDS011;7282;49.204;10.652;2023-05-07T12:55:32;2.43;;;2.10;;
14394;SDS011;7282;49.204;10.652;2023-05-07T12:58:00;2.13;;;2.00;;
14394;SDS011;7282;49.204;10.652;2023-05-07T13:00:36;2.80;;;1.90;;
14394;SDS011;7282;49.204;10.652;2023-05-07T13:03:03;2.33;;;2.13;;
14394;SDS011;7282;49.204;10.652;2023-05-07T13:05:31;2.87;;;2.10;;
14394;SDS011;7282;49.204;10.652;2023-05-07T13:07:58;1.97;;;1.87;;
14394;SDS011;7282;49.204;10.652;2023-05-07T13:10:25;2.30;;;2.07;;
14394;SDS011;7282;49.204;10.652;2023-05-07T13:12:52;2.30;;;2.10;;
14394;SDS011;7282;49.204;10.652;2023-05-07T13:15:19;2.40;;;2.20;;
14394;SDS011;7282;49.204;10.652;2023-05-07T13:17:45;2.60;;;2.17;;
14394;SDS011;7282;49.204;10.652;2023-05-07T13:20:12;2.67;;;2.30;;
14394;SDS011;7282;49.204;10.652;2023-05-07T13:22:39;3.63;;;2.27;;
14394;SDS011;7282;49.204;10.652;2023-05-07T13:25:06;2.70;;;2.00;;
14394;SDS011;7282;49.204;10.652;2023-05-07T13:27:33;2.20;;;2.10;;
14394;SDS011;7282;49.204;10.652;2023-05-07T13:30:02;2.00;;;1.90;;
14394;SDS011;7282;49.204;10.652;2023-05-07T13:32:29;2.20;;;2.00;;
14394;SDS011;7282;49.204;10.652;2023-05-07T13:34:56;2.10;;;2.00;;
14394;SDS011;7282;49.204;10.652;2023-05-07T13:37:23;2.43;;;2.23;;
14394;SDS011;7282;49.204;10.652;2023-05-07T13:39:49;2.30;;;2.10;;
14394;SDS011;7282;49.204;10.652;2023-05-07T13:42:17;2.23;;;2.03;;
14394;SDS011;7282;49.204;10.652;2023-05-07T13:44:43;2.37;;;2.17;;
14394;SDS011;7282;49.204;10.652;2023-05-07T13:47:11;2.27;;;2.00;;
14394;SDS011;7282;49.204;10.652;2023-05-07T13:49:37;2.23;;;2.03;;
14394;SDS011;7282;49.204;10.652;2023-05-07T13:52:04;2.23;;;1.93;;
14394;SDS011;7282;49.204;10.652;2023-05-07T13:54:31;2.13;;;1.90;;
14394;SDS011;7282;49.204;10.652;2023-05-07T13:56:58;1.90;;;1.80;;
14394;SDS011;7282;49.204;10.652;2023-05-07T13:59:24;1.80;;;1.70;;
14394;SDS011;7282;49.204;10.652;2023-05-07T14:01:51;2.27;;;2.07;;
14394;SDS011;7282;49.204;10.652;2023-05-07T14:04:18;2.20;;;1.90;;
14394;SDS011;7282;49.204;10.652;2023-05-07T14:06:44;2.07;;;1.97;;
14394;SDS011;7282;49.204;10.652;2023-05-07T14:09:11;2.10;;;1.90;;
14394;SDS011;7282;49.204;10.652;2023-05-07T14:11:39;2.73;;;2.27;;
14394;SDS011;7282;49.204;10.652;2023-05-07T14:14:06;1.90;;;1.80;;
14394;SDS011;7282;49.204;10.652;2023-05-07T14:16:32;2.30;;;2.10;;
14394;SDS011;7282;49.204;10.652;2023-05-07T14:18:59;2.30;;;2.10;;
14394;SDS011;7282;49.204;10.652;2023-05-07T14:21:26;1.90;;;1.80;;
14394;SDS011;7282;49.204;10.652;2023-05-07T14:23:53;1.90;;;1.80;;
14394;SDS011;7282;49.204;10.652;2023-05-07T14:26:19;2.07;;;1.87;;
14394;SDS011;7282;49.204;10.652;2023-05-07T14:28:46;1.93;;;1.83;;
14394;SDS011;7282;49.204;10.652;2023-05-07T14:31:13;3.73;;;2.53;;
14394;SDS011;7282;49.204;10.652;2023-05-07T14:33:40;2.03;;;1.93;;
14394;SDS011;7282;49.204;10.652;2023-05-07T14:36:06;2.37;;;2.10;;
14394;SDS011;7282;49.204;10.652;2023-05-07T14:38:33;2.30;;;2.10;;
14394;SDS011;7282;49.204;10.652;2023-05-07T14:41:00;2.73;;;2.27;;
14394;SDS011;7282;49.204;10.652;2023-05-07T14:43:27;2.20;;;2.00;;
14394;SDS011;7282;49.204;10.652;2023-05-07T14:45:53;3.03;;;2.00;;
14394;SDS011;7282;49.204;10.652;2023-05-07T14:48:20;2.10;;;1.90;;
14394;SDS011;7282;49.204;10.652;2023-05-07T14:50:47;2.20;;;2.10;;
14394;SDS011;7282;49.204;10.652;2023-05-07T14:53:14;2.30;;;2.10;;
14394;SDS011;7282;49.204;10.652;2023-05-07T14:55:41;2.10;;;1.87;;